Weather at Moreton Airpark

Public forecast

Using degrees Fahrenheit for public forecast. Weather courtesy of forecast.io.

Closest aviation weather report (METAR) to Moreton Airpark

Closest report is Buckeye Municipal Airport, 36.5 nm (67.6 km) S. Retrieved 2021/06/23 02:15 UTC (13 minutes ago):

KBXK 230215Z AUTO 20009G15KT 10SM 35/11 A2980 RMK A01

Closest aviation forecast (TAF) to Moreton Airpark

Closest forecast is Luke Air Force Base, 36.5 nm (67.7 km) SE. Retrieved 2021/06/22 20:38 UTC (6 hours ago):

TAF COR KLUF 222030Z 2220/2402 22012G20KT 9999 SCT180 BKN200 QNH2972INS BECMG 2302/2303 24012KT 9999 SCT150 BKN180 QNH2975INS TEMPO 2309/2315 8000 -SHRA VCTS OVC120CB BECMG 2315/2316 24009KT 9999 VCSH SCT080 BKN120 QNH2990INS BECMG 2318/2319 VRB06KT 9999 NSW FEW100 QNH2979INS TX43/2221Z TN24/2312Z